Time;durP1;ratioP1;P1;durP2;ratioP2;P2;SDS_P1;SDS_P2;PMS_P1;PMS_P2;Temp;Humidity;BMP_temperature;BMP_pressure;BME280_temperature;BME280_humidity;BME280_pressure;Samples;Min_cycle;Max_cycle;Signal;HPM_P1;HPM_P2
2023/06/17 00:01:30;;;;;;;8.13;5.57;;;;;;;18.03;60.33;101067.22;5030399;28;20033;-61
2023/06/17 00:03:55;;;;;;;8.05;6.45;;;;;;;17.99;60.51;101065.59;5030512;28;20052;-61
2023/06/17 00:06:21;;;;;;;9.85;5.82;;;;;;;17.95;60.25;101064.88;5035153;28;20112;-62
2023/06/17 00:08:46;;;;;;;10.88;6.10;;;;;;;17.90;60.76;101072.00;5034485;28;20028;-62
2023/06/17 00:11:11;;;;;;;8.25;6.10;;;;;;;17.87;61.11;101071.25;5034222;28;20040;-62
2023/06/17 00:13:37;;;;;;;9.23;5.72;;;;;;;17.86;61.08;101067.81;5036917;28;20037;-62
2023/06/17 00:16:06;;;;;;;7.13;5.88;;;;;;;17.86;61.54;101074.78;5029635;28;20123;-61
2023/06/17 00:18:32;;;;;;;8.02;6.25;;;;;;;17.82;61.77;101073.13;5031406;28;20041;-62
2023/06/17 00:20:58;;;;;;;9.05;5.97;;;;;;;17.79;61.94;101081.09;5035706;28;20041;-62
2023/06/17 00:23:23;;;;;;;6.32;5.13;;;;;;;17.77;61.94;101075.06;5034905;28;20033;-61
2023/06/17 00:25:49;;;;;;;12.43;6.20;;;;;;;17.73;61.76;101076.91;5033100;28;20041;-62
2023/06/17 00:28:15;;;;;;;7.85;5.35;;;;;;;17.70;61.88;101073.53;5034134;28;20045;-61
2023/06/17 00:30:41;;;;;;;9.57;5.68;;;;;;;17.68;61.65;101073.59;5034188;28;20065;-62
2023/06/17 00:33:06;;;;;;;6.82;5.57;;;;;;;17.67;61.48;101064.03;5035601;28;20111;-62
2023/06/17 00:35:33;;;;;;;6.35;5.30;;;;;;;17.67;61.36;101064.03;5038022;28;20037;-62
2023/06/17 00:37:58;;;;;;;6.45;5.43;;;;;;;17.64;61.22;101063.28;5034834;28;20120;-62
2023/06/17 00:40:24;;;;;;;8.75;6.38;;;;;;;17.61;60.91;101056.41;5038559;28;21035;-62
2023/06/17 00:42:49;;;;;;;7.43;5.80;;;;;;;17.54;61.68;101069.72;5038086;28;20037;-61
2023/06/17 00:45:14;;;;;;;11.50;6.05;;;;;;;17.49;61.75;101072.47;5038003;28;20045;-62
2023/06/17 00:47:40;;;;;;;9.90;6.25;;;;;;;17.42;62.33;101071.81;5040002;28;20128;-61
2023/06/17 00:50:09;;;;;;;9.70;6.10;;;;;;;17.36;62.73;101079.00;5037018;28;20064;-62
2023/06/17 00:52:36;;;;;;;7.07;5.80;;;;;;;17.29;63.31;101080.09;5031230;28;21930;-61
2023/06/17 00:55:02;;;;;;;10.13;6.53;;;;;;;17.23;63.79;101086.34;5040868;28;20045;-62
2023/06/17 00:57:28;;;;;;;11.20;6.50;;;;;;;17.16;63.82;101089.19;5036213;28;20036;-62
2023/06/17 00:59:54;;;;;;;10.18;6.65;;;;;;;17.11;64.22;101084.13;5033270;28;20789;-62
2023/06/17 01:02:19;;;;;;;8.95;7.25;;;;;;;17.04;64.02;101090.41;5030936;28;20029;-61
2023/06/17 01:04:48;;;;;;;9.63;6.07;;;;;;;16.99;64.17;101089.69;5038741;28;20680;-61
2023/06/17 01:07:35;;;;;;;9.00;6.70;;;;;;;16.91;64.13;101083.84;5037449;28;20144;-61
2023/06/17 01:10:12;;;;;;;8.93;6.80;;;;;;;16.85;64.10;101084.91;5038486;28;20080;-61
2023/06/17 01:12:41;;;;;;;10.45;6.25;;;;;;;16.80;64.10;101078.94;5036210;28;20671;-62
2023/06/17 01:15:08;;;;;;;8.60;6.18;;;;;;;16.75;64.42;101085.16;5035663;28;20072;-62
2023/06/17 01:17:35;;;;;;;7.90;5.68;;;;;;;16.72;64.33;101087.84;5036576;28;20099;-62
2023/06/17 01:20:06;;;;;;;9.48;5.88;;;;;;;16.70;64.46;101079.22;5035512;28;20124;-62
2023/06/17 01:22:34;;;;;;;8.68;5.70;;;;;;;16.67;64.25;101074.09;5016497;28;20095;-61
2023/06/17 01:25:01;;;;;;;10.50;6.53;;;;;;;16.62;64.05;101079.41;5039030;28;20045;-62
2023/06/17 01:27:28;;;;;;;11.77;6.82;;;;;;;16.59;64.26;101069.06;5035544;28;20037;-62
2023/06/17 01:29:54;;;;;;;13.65;6.88;;;;;;;16.57;64.65;101075.22;5033998;28;20021;-62
2023/06/17 01:32:20;;;;;;;9.32;6.30;;;;;;;16.50;64.85;101071.97;5031123;28;20044;-62
2023/06/17 01:34:59;;;;;;;10.60;6.90;;;;;;;16.44;64.91;101077.34;5037299;28;20406;-61
2023/06/17 01:37:48;;;;;;;9.00;6.28;;;;;;;16.40;65.07;101075.72;5042531;28;20055;-61
2023/06/17 01:40:17;;;;;;;8.52;6.47;;;;;;;16.37;65.21;101069.72;5041207;28;20045;-62
2023/06/17 01:42:45;;;;;;;7.75;6.38;;;;;;;16.34;65.37;101070.66;5035901;28;20789;-62
2023/06/17 01:45:12;;;;;;;8.43;6.05;;;;;;;16.28;65.75;101074.28;5032961;28;20036;-62
2023/06/17 01:47:38;;;;;;;9.60;6.65;;;;;;;16.26;66.60;101078.69;5032739;28;20041;-62
2023/06/17 01:50:05;;;;;;;9.38;6.93;;;;;;;16.22;66.88;101081.41;5030898;28;20040;-62
2023/06/17 01:52:31;;;;;;;10.10;7.10;;;;;;;16.18;66.92;101077.16;5034410;28;20120;-62
2023/06/17 01:54:58;;;;;;;8.38;6.63;;;;;;;16.14;67.42;101078.16;5033162;28;20510;-61
2023/06/17 01:57:23;;;;;;;10.27;6.93;;;;;;;16.11;67.94;101083.44;5033728;28;20045;-61
2023/06/17 01:59:49;;;;;;;11.73;6.97;;;;;;;16.04;68.15;101076.66;5035722;28;20060;-61
2023/06/17 02:02:15;;;;;;;9.43;6.55;;;;;;;15.98;68.15;101077.69;5031416;28;20786;-61
2023/06/17 02:04:41;;;;;;;7.70;6.10;;;;;;;15.93;68.17;101082.16;5039286;28;20060;-62
2023/06/17 02:07:06;;;;;;;9.30;6.97;;;;;;;15.88;67.92;101078.81;5041917;28;20779;-61
2023/06/17 02:09:32;;;;;;;13.60;6.72;;;;;;;15.86;68.35;101077.13;5041212;28;20132;-62
2023/06/17 02:11:57;;;;;;;10.18;6.50;;;;;;;15.82;68.27;101071.13;5041207;28;20697;-62
2023/06/17 02:14:23;;;;;;;9.07;6.82;;;;;;;15.78;68.47;101071.25;5036231;28;20049;-62
2023/06/17 02:16:49;;;;;;;8.32;7.05;;;;;;;15.73;68.88;101068.78;5039161;28;20126;-61
2023/06/17 02:19:15;;;;;;;10.40;7.22;;;;;;;15.63;68.74;101068.16;5038112;28;20041;-61
2023/06/17 02:21:43;;;;;;;9.52;6.63;;;;;;;15.60;69.02;101065.59;5038848;28;20064;-61
2023/06/17 02:24:10;;;;;;;10.88;7.00;;;;;;;15.56;69.13;101063.06;5038481;28;20126;-61
2023/06/17 02:26:36;;;;;;;9.48;7.13;;;;;;;15.49;69.72;101069.34;5041588;28;20140;-62
2023/06/17 02:29:02;;;;;;;10.93;6.13;;;;;;;15.42;70.04;101066.00;5041784;28;20044;-61
2023/06/17 02:31:28;;;;;;;9.98;6.63;;;;;;;15.37;70.16;101062.66;5038171;28;20705;-62
2023/06/17 02:33:55;;;;;;;10.18;7.50;;;;;;;15.35;70.68;101066.19;5038624;28;20044;-62
2023/06/17 02:36:20;;;;;;;11.95;8.10;;;;;;;15.30;70.84;101068.03;5036663;28;20041;-62
2023/06/17 02:38:45;;;;;;;12.60;8.23;;;;;;;15.24;70.82;101063.81;5035426;28;20454;-61
2023/06/17 02:41:11;;;;;;;10.95;7.57;;;;;;;15.22;71.06;101065.63;5040489;28;20811;-62
2023/06/17 02:43:36;;;;;;;10.90;7.07;;;;;;;15.20;71.40;101063.03;5039233;28;20068;-62
2023/06/17 02:46:01;;;;;;;10.20;7.00;;;;;;;15.17;71.28;101065.72;5038275;28;20622;-61
2023/06/17 02:48:27;;;;;;;10.73;7.78;;;;;;;15.19;71.56;101063.09;5038549;28;20036;-61
2023/06/17 02:50:54;;;;;;;11.13;7.93;;;;;;;15.16;72.20;101066.63;5039232;28;20029;-62
2023/06/17 02:53:20;;;;;;;14.02;8.30;;;;;;;15.13;72.18;101061.47;5037999;28;20091;-62
2023/06/17 02:55:46;;;;;;;10.27;8.30;;;;;;;15.08;72.48;101065.03;5037874;28;20033;-62
2023/06/17 02:58:15;;;;;;;11.25;8.13;;;;;;;15.03;72.68;101065.16;5036387;28;20064;-61
2023/06/17 03:00:42;;;;;;;10.13;7.72;;;;;;;15.01;73.03;101058.28;5038580;28;20068;-62
2023/06/17 03:03:09;;;;;;;10.63;7.60;;;;;;;14.98;72.73;101060.94;5034964;28;20043;-61
2023/06/17 03:05:37;;;;;;;11.15;8.68;;;;;;;14.92;72.76;101056.75;5031408;28;20095;-61
2023/06/17 03:08:03;;;;;;;11.23;8.20;;;;;;;14.88;72.69;101060.28;5035887;28;20036;-61
2023/06/17 03:10:28;;;;;;;9.45;7.35;;;;;;;14.83;73.18;101053.47;5030445;28;20091;-61
2023/06/17 03:12:53;;;;;;;9.43;6.93;;;;;;;14.81;73.20;101057.84;5033837;28;20172;-61
2023/06/17 03:15:19;;;;;;;9.00;7.38;;;;;;;14.80;73.18;101059.59;5025623;28;20095;-62
2023/06/17 03:17:45;;;;;;;11.57;7.57;;;;;;;14.78;73.47;101063.94;5032305;28;20138;-62
2023/06/17 03:20:11;;;;;;;9.88;8.07;;;;;;;14.77;73.82;101062.25;5033574;28;20041;-61
2023/06/17 03:22:36;;;;;;;14.93;9.82;;;;;;;14.76;73.93;101067.47;5030551;28;20033;-62
2023/06/17 03:25:02;;;;;;;16.95;9.32;;;;;;;14.76;73.31;101065.75;5030253;28;20039;-62
2023/06/17 03:27:28;;;;;;;13.85;9.15;;;;;;;14.71;73.33;101054.59;5036827;28;20033;-62
2023/06/17 03:29:53;;;;;;;12.35;8.63;;;;;;;14.66;74.02;101062.47;5036312;28;20094;-62
2023/06/17 03:32:19;;;;;;;10.80;7.82;;;;;;;14.66;74.00;101059.03;5030931;28;20033;-61
2023/06/17 03:34:44;;;;;;;10.32;7.90;;;;;;;14.66;74.09;101061.63;5033204;28;20052;-62
2023/06/17 03:37:10;;;;;;;12.85;8.38;;;;;;;14.62;75.16;101060.84;5035476;28;20040;-65
2023/06/17 03:39:36;;;;;;;11.38;8.80;;;;;;;14.66;75.14;101064.25;5035694;28;20110;-65
2023/06/17 03:42:01;;;;;;;10.85;8.30;;;;;;;14.68;75.42;101056.38;5019861;28;20506;-65
2023/06/17 03:44:26;;;;;;;12.25;7.93;;;;;;;14.69;74.95;101058.09;5032575;28;20053;-65
2023/06/17 03:46:52;;;;;;;11.73;8.45;;;;;;;14.70;75.09;101052.84;5031512;28;20606;-65
2023/06/17 03:49:17;;;;;;;10.38;7.88;;;;;;;14.75;74.60;101052.78;5039734;28;20637;-65
2023/06/17 03:51:42;;;;;;;11.13;7.70;;;;;;;14.78;74.43;101053.53;5033039;28;20076;-65
2023/06/17 03:54:08;;;;;;;10.95;7.65;;;;;;;14.83;74.16;101040.44;5036388;28;20033;-65
2023/06/17 03:56:33;;;;;;;16.60;8.13;;;;;;;14.86;73.41;101035.19;5039894;28;20036;-62
2023/06/17 03:58:59;;;;;;;12.95;8.18;;;;;;;14.87;73.12;101035.13;5035345;28;20072;-61
2023/06/17 04:01:24;;;;;;;10.98;7.88;;;;;;;14.89;72.43;101042.94;5028535;28;21078;-61
2023/06/17 04:03:50;;;;;;;11.73;7.70;;;;;;;14.90;72.17;101035.06;5034623;28;20124;-62
2023/06/17 04:06:16;;;;;;;10.75;8.07;;;;;;;14.93;72.32;101037.59;5031118;28;20648;-62
2023/06/17 04:08:43;;;;;;;11.57;8.40;;;;;;;14.92;72.37;101037.66;5017310;28;20037;-61
2023/06/17 04:11:08;;;;;;;9.43;7.63;;;;;;;14.93;72.07;101035.00;5041629;28;20044;-61
2023/06/17 04:13:34;;;;;;;12.45;8.07;;;;;;;14.97;71.63;101033.19;5038857;28;20045;-62
2023/06/17 04:16:00;;;;;;;11.20;7.82;;;;;;;15.02;71.05;101027.00;5041522;28;20036;-62
2023/06/17 04:18:27;;;;;;;10.23;8.30;;;;;;;15.06;71.15;101023.44;5041912;28;20724;-62
2023/06/17 04:20:56;;;;;;;11.73;8.27;;;;;;;15.08;71.23;101026.84;5044048;28;20426;-62
2023/06/17 04:23:22;;;;;;;10.30;8.05;;;;;;;15.12;71.22;101022.44;5040310;28;20068;-64
2023/06/17 04:25:48;;;;;;;9.77;7.47;;;;;;;15.17;70.54;101020.56;5044728;28;20028;-64
2023/06/17 04:28:17;;;;;;;11.65;7.75;;;;;;;15.27;70.17;101018.63;5048352;28;20045;-64
2023/06/17 04:30:45;;;;;;;9.73;7.50;;;;;;;15.35;69.50;101009.72;5041504;28;20043;-64
2023/06/17 04:33:12;;;;;;;11.27;7.82;;;;;;;15.41;69.25;101004.38;5040974;28;20820;-64
2023/06/17 04:35:41;;;;;;;11.20;7.57;;;;;;;15.42;69.05;101008.72;5042619;28;20139;-64
2023/06/17 04:38:07;;;;;;;11.18;8.27;;;;;;;15.49;69.00;101002.47;5034405;28;20030;-64
2023/06/17 04:40:33;;;;;;;12.48;8.48;;;;;;;15.58;69.01;101002.22;5041673;28;21316;-64
2023/06/17 04:42:59;;;;;;;10.48;7.45;;;;;;;15.67;68.45;101007.22;5037930;28;20044;-64
2023/06/17 04:45:25;;;;;;;9.88;7.78;;;;;;;15.72;68.03;101007.13;5042437;28;20124;-64
2023/06/17 04:47:50;;;;;;;13.85;8.30;;;;;;;15.76;68.14;101006.16;5041307;28;20039;-64
2023/06/17 04:50:16;;;;;;;11.73;8.05;;;;;;;15.81;68.43;101009.50;5044011;28;20099;-64
2023/06/17 04:52:51;;;;;;;10.48;7.85;;;;;;;15.86;68.10;101014.56;5036397;28;20677;-64
2023/06/17 04:55:18;;;;;;;10.18;7.90;;;;;;;15.86;68.51;101018.03;5034999;28;20052;-65
2023/06/17 04:57:44;;;;;;;10.60;8.32;;;;;;;15.90;68.45;101011.88;5043197;28;20036;-65
2023/06/17 05:00:12;;;;;;;10.27;8.18;;;;;;;15.96;67.66;101006.50;5040677;28;20029;-65
2023/06/17 05:02:38;;;;;;;11.20;7.97;;;;;;;15.99;67.71;101005.53;5032456;28;20036;-66
2023/06/17 05:05:05;;;;;;;12.07;8.30;;;;;;;16.11;67.78;101013.91;5045649;28;20494;-65
2023/06/17 05:07:30;;;;;;;11.60;8.40;;;;;;;16.15;67.47;100999.84;5046362;28;20033;-65
2023/06/17 05:09:55;;;;;;;12.60;8.75;;;;;;;16.25;67.28;101000.47;5043840;28;20041;-65
2023/06/17 05:12:21;;;;;;;13.07;8.18;;;;;;;16.39;66.95;101000.06;5044455;28;20037;-65
2023/06/17 05:14:46;;;;;;;12.80;8.75;;;;;;;16.48;66.77;100984.16;5041350;28;20025;-65
2023/06/17 05:17:12;;;;;;;11.70;8.32;;;;;;;16.59;66.80;100995.16;5045372;28;20037;-65
2023/06/17 05:19:38;;;;;;;12.88;7.88;;;;;;;16.67;67.02;100991.41;5042062;28;20044;-65
2023/06/17 05:22:03;;;;;;;17.00;7.90;;;;;;;16.75;66.29;100994.66;5049515;28;20041;-63
2023/06/17 05:24:28;;;;;;;13.55;8.43;;;;;;;16.83;66.23;100995.28;5047673;28;20033;-62
2023/06/17 05:26:54;;;;;;;12.48;8.75;;;;;;;16.94;66.21;100995.00;5032729;28;20021;-62
2023/06/17 05:29:19;;;;;;;10.85;7.57;;;;;;;17.06;66.32;100998.97;5044979;28;20061;-61
2023/06/17 05:31:44;;;;;;;12.75;8.45;;;;;;;17.14;65.57;100996.97;5046073;28;20211;-65
2023/06/17 05:34:10;;;;;;;11.02;7.93;;;;;;;17.24;65.62;101001.00;5044349;28;20040;-65
2023/06/17 05:36:35;;;;;;;10.00;8.18;;;;;;;17.33;62.47;100969.38;5038917;28;20057;-65
2023/06/17 05:39:00;;;;;;;9.73;8.05;;;;;;;17.41;65.69;101030.06;5025088;28;20144;-65
2023/06/17 05:41:26;;;;;;;12.48;8.02;;;;;;;17.40;66.09;101026.59;5045300;28;20581;-65
2023/06/17 05:43:51;;;;;;;10.48;8.45;;;;;;;17.40;66.46;101031.81;5042895;28;20490;-65
2023/06/17 05:46:17;;;;;;;13.38;8.65;;;;;;;17.49;66.19;101032.41;5048173;28;20036;-66
2023/06/17 05:48:42;;;;;;;13.48;8.57;;;;;;;17.53;65.44;101018.34;5042988;28;20242;-65
2023/06/17 05:51:07;;;;;;;9.68;7.85;;;;;;;17.55;65.58;101016.53;5044877;28;20048;-66
2023/06/17 05:53:33;;;;;;;11.60;8.80;;;;;;;17.57;66.01;101030.44;5037792;28;20430;-66
2023/06/17 05:55:58;;;;;;;14.50;8.10;;;;;;;17.59;65.34;101015.53;5045295;28;20775;-65
2023/06/17 05:58:24;;;;;;;11.20;7.93;;;;;;;17.70;64.86;101014.28;5038515;28;20094;-65
2023/06/17 06:00:49;;;;;;;11.45;7.40;;;;;;;17.84;65.00;101003.34;5040888;28;20045;-66
2023/06/17 06:03:14;;;;;;;12.35;7.32;;;;;;;17.96;63.94;100995.94;5034170;28;20071;-66
2023/06/17 06:05:40;;;;;;;12.30;6.78;;;;;;;18.07;62.68;100987.75;5045406;28;20108;-65
2023/06/17 06:08:05;;;;;;;10.88;7.07;;;;;;;18.17;61.84;100983.00;5044330;28;20553;-65
2023/06/17 06:10:31;;;;;;;11.25;7.90;;;;;;;18.27;60.57;100966.09;5042358;28;20130;-66
2023/06/17 06:12:56;;;;;;;10.60;7.32;;;;;;;18.34;60.11;100965.81;5046143;28;20048;-65
2023/06/17 06:15:22;;;;;;;12.70;7.07;;;;;;;18.43;60.10;100965.44;5039976;28;20036;-66
2023/06/17 06:17:47;;;;;;;10.00;7.15;;;;;;;18.53;59.55;100960.72;5036377;28;20039;-66
2023/06/17 06:20:13;;;;;;;8.07;6.18;;;;;;;18.61;58.56;100944.75;5039653;28;20111;-66
2023/06/17 06:22:38;;;;;;;9.48;6.63;;;;;;;18.70;57.88;100949.63;5025070;28;20033;-65
2023/06/17 06:25:05;;;;;;;8.60;6.10;;;;;;;18.78;57.47;100937.94;5032411;28;20483;-66
2023/06/17 06:27:31;;;;;;;8.93;5.82;;;;;;;18.91;57.40;100946.16;5034100;28;20033;-66
2023/06/17 06:29:56;;;;;;;8.05;6.28;;;;;;;19.01;57.04;100952.75;5032178;28;20044;-66
2023/06/17 06:32:21;;;;;;;13.93;6.90;;;;;;;19.06;56.36;100941.19;5032050;28;20047;-64
2023/06/17 06:34:47;;;;;;;7.43;6.18;;;;;;;19.14;56.10;100932.16;5031481;28;20044;-65
2023/06/17 06:37:12;;;;;;;10.18;6.22;;;;;;;19.23;55.88;100929.16;5035644;28;20206;-66
2023/06/17 06:39:37;;;;;;;10.07;6.18;;;;;;;19.30;55.53;100923.59;5035051;28;20041;-65
2023/06/17 06:42:03;;;;;;;11.32;7.25;;;;;;;19.32;54.83;100911.31;5037577;28;20067;-66
2023/06/17 06:44:28;;;;;;;9.32;6.50;;;;;;;19.38;54.40;100926.78;5015887;28;20641;-65
2023/06/17 06:46:55;;;;;;;7.40;5.60;;;;;;;19.46;54.45;100936.94;5035397;28;20095;-65
2023/06/17 06:49:21;;;;;;;8.38;6.55;;;;;;;19.54;54.44;100933.06;5031386;28;20052;-65
2023/06/17 06:51:48;;;;;;;11.57;6.45;;;;;;;19.65;53.93;100935.22;5034007;28;20033;-65
2023/06/17 06:54:13;;;;;;;12.90;7.45;;;;;;;19.72;53.03;100927.94;5039456;28;20048;-65
2023/06/17 06:56:39;;;;;;;13.68;8.10;;;;;;;19.78;52.75;100922.44;5021369;28;20116;-65
2023/06/17 06:59:05;;;;;;;13.85;7.50;;;;;;;19.87;52.99;100927.31;5035026;28;20067;-66
2023/06/17 07:01:30;;;;;;;10.60;7.65;;;;;;;19.99;52.75;100918.88;5028208;28;20047;-66
2023/06/17 07:03:56;;;;;;;8.90;7.28;;;;;;;20.11;52.45;100920.97;5030631;28;20056;-65
2023/06/17 07:06:21;;;;;;;14.52;7.70;;;;;;;20.28;52.12;100917.56;5033222;28;20037;-65
2023/06/17 07:08:47;;;;;;;10.70;7.82;;;;;;;20.40;51.44;100909.13;5029969;28;20646;-65
2023/06/17 07:11:12;;;;;;;13.00;8.60;;;;;;;20.56;51.11;100907.50;5032468;28;20087;-65
2023/06/17 07:13:37;;;;;;;17.90;7.95;;;;;;;20.68;50.70;100907.78;5036097;28;20049;-65
2023/06/17 07:16:04;;;;;;;10.98;8.35;;;;;;;20.70;50.34;100908.59;5033692;28;20033;-65
2023/06/17 07:18:29;;;;;;;10.23;7.40;;;;;;;20.76;50.39;100917.09;5019325;28;20441;-65
2023/06/17 07:20:55;;;;;;;11.90;7.35;;;;;;;20.80;50.72;100923.91;5038792;28;20032;-65
2023/06/17 07:23:20;;;;;;;12.23;7.80;;;;;;;20.85;50.29;100924.53;5019420;28;20037;-65
2023/06/17 07:25:45;;;;;;;10.57;7.65;;;;;;;20.95;50.05;100917.91;5041407;28;20039;-65
2023/06/17 07:28:12;;;;;;;10.40;8.25;;;;;;;21.01;50.13;100915.00;5027016;28;20087;-65
2023/06/17 07:30:38;;;;;;;9.95;7.45;;;;;;;21.07;50.04;100915.56;5034821;28;20047;-65
2023/06/17 07:33:03;;;;;;;11.75;7.13;;;;;;;21.18;50.10;100915.84;5031292;28;20041;-65
2023/06/17 07:35:30;;;;;;;12.30;8.02;;;;;;;21.36;49.56;100907.97;5032840;28;20039;-66
2023/06/17 07:37:55;;;;;;;11.55;7.35;;;;;;;21.53;48.80;100905.31;5032842;28;20044;-65
2023/06/17 07:40:20;;;;;;;10.65;7.70;;;;;;;21.65;48.61;100899.47;5042325;28;20041;-66
2023/06/17 07:42:46;;;;;;;14.02;7.57;;;;;;;21.74;48.22;100901.63;5036615;28;20636;-66
2023/06/17 07:45:11;;;;;;;11.68;7.82;;;;;;;21.80;47.93;100891.63;5034873;28;20030;-65
2023/06/17 07:47:39;;;;;;;10.35;6.90;;;;;;;21.93;48.14;100896.25;5036092;28;20065;-66
2023/06/17 07:50:06;;;;;;;13.07;8.13;;;;;;;21.95;47.23;100884.72;5033198;28;20052;-65
2023/06/17 07:52:33;;;;;;;9.50;6.28;;;;;;;22.02;47.89;100896.63;5029674;28;20092;-66
2023/06/17 07:54:59;;;;;;;9.00;6.25;;;;;;;22.09;47.55;100892.72;5032631;28;20140;-66
2023/06/17 07:57:24;;;;;;;10.40;6.75;;;;;;;22.22;47.50;100899.03;5035778;28;20036;-66
2023/06/17 07:59:49;;;;;;;10.05;7.07;;;;;;;22.42;47.65;100905.00;5032626;28;20049;-66
2023/06/17 08:02:15;;;;;;;10.57;8.32;;;;;;;22.49;46.34;100886.16;5033424;28;20036;-66
2023/06/17 08:04:41;;;;;;;14.63;8.63;;;;;;;22.53;45.46;100869.22;5036050;28;20029;-65
2023/06/17 08:07:06;;;;;;;10.10;7.25;;;;;;;22.59;45.20;100878.59;5034626;28;20033;-66
2023/06/17 08:09:32;;;;;;;12.20;8.07;;;;;;;22.63;44.95;100875.69;5035396;28;20065;-66
2023/06/17 08:11:57;;;;;;;9.70;7.07;;;;;;;22.78;44.99;100880.09;5037210;28;20108;-66
2023/06/17 08:14:23;;;;;;;11.50;7.38;;;;;;;22.86;44.70;100877.00;5034738;28;20041;-65
2023/06/17 08:16:48;;;;;;;13.35;7.57;;;;;;;22.86;44.19;100866.47;5032714;28;20095;-65
2023/06/17 08:19:14;;;;;;;10.90;7.63;;;;;;;22.89;44.64;100874.19;5024491;28;20065;-66
2023/06/17 08:21:41;;;;;;;10.95;7.75;;;;;;;23.01;45.23;100888.47;5025488;28;20043;-66
2023/06/17 08:24:18;;;;;;;10.32;7.95;;;;;;;23.07;45.22;100890.75;5026320;28;20032;-64
2023/06/17 08:26:44;;;;;;;16.40;8.00;;;;;;;23.20;45.39;100890.00;5030803;28;20049;-66
2023/06/17 08:29:12;;;;;;;14.27;7.40;;;;;;;23.22;44.57;100866.16;5034932;28;20033;-66
2023/06/17 08:31:38;;;;;;;11.75;6.93;;;;;;;23.44;44.44;100871.88;5034034;28;20091;-66
2023/06/17 08:34:03;;;;;;;10.68;6.55;;;;;;;23.48;42.78;100844.38;5027857;28;20053;-66
2023/06/17 08:36:29;;;;;;;10.43;5.65;;;;;;;23.53;43.32;100852.00;5032334;28;20751;-66
2023/06/17 08:38:54;;;;;;;9.23;6.43;;;;;;;23.54;43.38;100856.34;5044683;28;20371;-66
2023/06/17 08:41:20;;;;;;;9.98;5.82;;;;;;;23.63;41.24;100832.84;5027337;28;20053;-65
2023/06/17 08:43:48;;;;;;;9.23;5.68;;;;;;;23.72;40.60;100827.00;5035218;28;20041;-66
2023/06/17 08:46:14;;;;;;;9.80;5.50;;;;;;;23.83;40.98;100839.56;5032178;28;20565;-67
2023/06/17 08:48:43;;;;;;;7.18;5.10;;;;;;;24.13;40.23;100828.91;5020731;28;20037;-65
2023/06/17 08:51:09;;;;;;;7.57;5.18;;;;;;;24.23;39.76;100828.22;5023475;28;20581;-66
2023/06/17 08:53:35;;;;;;;7.93;4.78;;;;;;;24.28;39.20;100814.72;5024530;28;20071;-66
2023/06/17 08:56:01;;;;;;;6.45;4.97;;;;;;;24.28;39.38;100833.22;5012002;28;20036;-66
2023/06/17 08:58:27;;;;;;;5.85;4.63;;;;;;;24.35;38.96;100830.09;5030199;28;20091;-66
2023/06/17 09:00:52;;;;;;;9.90;4.88;;;;;;;24.60;37.60;100805.56;5011709;28;20036;-66
2023/06/17 09:03:20;;;;;;;9.60;4.53;;;;;;;24.62;37.36;100808.94;5024743;28;20662;-66
2023/06/17 09:05:45;;;;;;;8.52;3.97;;;;;;;24.61;37.08;100809.88;5028567;28;20059;-66
2023/06/17 09:08:10;;;;;;;7.28;4.05;;;;;;;24.81;35.44;100801.53;5032346;28;20518;-66
2023/06/17 09:10:43;;;;;;;5.95;3.95;;;;;;;24.89;35.25;100803.66;5011622;28;20054;-66
2023/06/17 09:13:09;;;;;;;6.60;4.05;;;;;;;24.91;35.57;100812.31;5027605;28;20087;-65
2023/06/17 09:15:39;;;;;;;4.85;3.90;;;;;;;24.93;33.13;100797.22;5030694;28;20525;-66
2023/06/17 09:18:04;;;;;;;12.45;3.83;;;;;;;25.07;34.70;100823.56;5031291;28;20311;-66
2023/06/17 09:20:32;;;;;;;7.03;4.03;;;;;;;25.12;33.54;100808.22;5026950;28;20029;-66
2023/06/17 09:22:57;;;;;;;6.80;3.95;;;;;;;25.09;34.09;100819.03;5037555;28;20095;-66
2023/06/17 09:25:23;;;;;;;4.95;4.07;;;;;;;25.08;34.16;100825.28;5034283;28;20477;-66
2023/06/17 09:27:55;;;;;;;5.68;4.10;;;;;;;25.14;35.61;100839.91;5014495;28;20047;-66
2023/06/17 09:30:22;;;;;;;7.38;3.47;;;;;;;25.23;35.33;100845.41;5031782;28;20040;-66
2023/06/17 09:32:51;;;;;;;7.68;4.30;;;;;;;25.37;34.81;100829.44;5029384;28;20458;-66
2023/06/17 09:35:17;;;;;;;3.92;3.28;;;;;;;25.46;35.14;100836.78;5033127;28;20036;-66
2023/06/17 09:37:52;;;;;;;10.70;5.20;;;;;;;25.65;35.60;100838.16;5028141;28;20039;-66
2023/06/17 09:40:18;;;;;;;7.82;4.65;;;;;;;25.72;35.60;100836.75;5024342;28;20041;-65
2023/06/17 09:42:44;;;;;;;6.57;4.18;;;;;;;25.84;35.38;100835.91;5027173;28;20033;-65
2023/06/17 09:45:12;;;;;;;7.80;3.97;;;;;;;25.98;35.17;100841.06;5025364;28;20021;-65
2023/06/17 09:47:38;;;;;;;8.57;4.90;;;;;;;25.99;34.49;100824.22;5028677;28;20049;-65
2023/06/17 09:50:08;;;;;;;6.57;4.20;;;;;;;26.08;34.38;100834.16;5028142;28;20401;-65
2023/06/17 09:52:35;;;;;;;5.70;4.20;;;;;;;26.08;32.76;100813.81;5030101;28;20040;-64
2023/06/17 09:55:02;;;;;;;7.30;4.05;;;;;;;26.07;33.27;100828.00;5029039;28;20033;-64
2023/06/17 09:57:31;;;;;;;4.95;4.03;;;;;;;26.12;33.01;100819.78;5032402;28;20021;-65
2023/06/17 09:59:57;;;;;;;8.23;4.80;;;;;;;26.13;32.69;100816.16;5037690;28;20382;-64
2023/06/17 10:02:22;;;;;;;5.47;4.40;;;;;;;26.21;33.05;100828.88;5025054;28;20052;-64
2023/06/17 10:04:48;;;;;;;10.05;4.93;;;;;;;26.25;33.16;100833.81;5024466;28;20498;-64
2023/06/17 10:07:16;;;;;;;8.00;4.75;;;;;;;26.39;33.18;100836.31;5028414;28;20128;-64
2023/06/17 10:09:42;;;;;;;6.68;4.53;;;;;;;26.41;33.16;100831.78;5031861;28;20085;-63
2023/06/17 10:12:09;;;;;;;9.13;4.70;;;;;;;26.62;33.15;100834.66;5026928;28;20476;-64
2023/06/17 10:14:34;;;;;;;8.50;4.75;;;;;;;26.68;33.49;100834.19;5023459;28;20044;-64
2023/06/17 10:17:05;;;;;;;6.55;4.78;;;;;;;26.72;32.58;100820.59;5018875;28;20029;-64
2023/06/17 10:19:33;;;;;;;9.02;5.25;;;;;;;26.81;31.95;100810.31;5035460;28;20131;-64
2023/06/17 10:22:00;;;;;;;9.95;5.38;;;;;;;26.77;31.59;100822.91;5036340;28;20063;-64
2023/06/17 10:24:27;;;;;;;8.95;5.03;;;;;;;26.49;31.67;100818.78;5036261;28;20035;-64
2023/06/17 10:26:53;;;;;;;8.27;5.68;;;;;;;26.57;31.91;100826.19;5034591;28;20079;-65
2023/06/17 10:29:18;;;;;;;6.18;4.53;;;;;;;26.79;32.13;100828.13;5030437;28;20069;-66
2023/06/17 10:31:44;;;;;;;7.30;4.70;;;;;;;26.97;31.93;100829.41;5036092;28;20124;-65
2023/06/17 10:34:20;;;;;;;7.63;5.00;;;;;;;27.16;31.59;100825.22;5028868;28;20390;-64
2023/06/17 10:36:51;;;;;;;7.72;5.38;;;;;;;27.19;30.95;100816.19;5033223;28;20033;-64
2023/06/17 10:39:17;;;;;;;10.18;5.18;;;;;;;27.35;31.33;100826.47;5033472;28;20029;-64
2023/06/17 10:41:45;;;;;;;9.43;5.05;;;;;;;27.46;31.33;100824.72;5036109;28;20098;-64
2023/06/17 10:44:19;;;;;;;7.30;4.95;;;;;;;27.56;31.53;100822.19;5029076;28;20032;-64
2023/06/17 10:46:46;;;;;;;7.32;5.00;;;;;;;27.58;31.01;100826.41;5032808;28;20052;-64
2023/06/17 10:49:14;;;;;;;8.10;4.75;;;;;;;27.56;31.50;100825.69;5033601;28;20033;-64
2023/06/17 10:51:48;;;;;;;8.70;5.25;;;;;;;27.76;31.94;100832.94;5037122;28;20033;-64
2023/06/17 10:54:14;;;;;;;7.22;4.95;;;;;;;27.78;31.42;100816.91;5032569;28;20037;-64
2023/06/17 10:56:50;;;;;;;5.72;5.10;;;;;;;28.08;33.22;100841.03;5016935;28;20056;-65
2023/06/17 10:59:40;;;;;;;7.10;4.68;;;;;;;28.40;31.40;100822.50;5029074;28;20064;-64
2023/06/17 11:02:07;;;;;;;8.63;5.95;;;;;;;28.48;29.05;100798.78;5032300;28;20945;-64
2023/06/17 11:04:33;;;;;;;6.78;5.15;;;;;;;28.39;29.02;100793.38;5035713;28;20033;-64
2023/06/17 11:07:00;;;;;;;6.38;5.18;;;;;;;28.24;28.31;100790.16;5034952;28;20140;-65
2023/06/17 11:09:27;;;;;;;9.25;5.95;;;;;;;28.37;28.59;100792.66;5030125;28;20021;-64
2023/06/17 11:11:57;;;;;;;8.32;5.60;;;;;;;27.99;28.42;100795.75;5037319;28;20027;-65
2023/06/17 11:14:25;;;;;;;9.30;5.75;;;;;;;28.13;28.46;100790.19;5028139;28;20061;-66
2023/06/17 11:16:51;;;;;;;9.90;5.43;;;;;;;28.31;28.75;100799.34;5033482;28;20387;-65
2023/06/17 11:19:16;;;;;;;6.85;5.25;;;;;;;28.53;28.52;100795.78;5030951;28;20049;-64